sensor_id;sensor_type;location;lat;lon;timestamp;P1;durP1;ratioP1;P2;durP2;ratioP2
54993;SDS011;40891;47.242;8.648;2024-03-25T00:01:05;4.67;;;1.10;;
54993;SDS011;40891;47.242;8.648;2024-03-25T00:03:30;7.83;;;1.30;;
54993;SDS011;40891;47.242;8.648;2024-03-25T00:05:55;3.90;;;1.47;;
54993;SDS011;40891;47.242;8.648;2024-03-25T00:08:22;3.27;;;1.20;;
54993;SDS011;40891;47.242;8.648;2024-03-25T00:10:47;2.37;;;1.13;;
54993;SDS011;40891;47.242;8.648;2024-03-25T00:13:12;4.77;;;1.80;;
54993;SDS011;40891;47.242;8.648;2024-03-25T00:15:38;4.83;;;1.50;;
54993;SDS011;40891;47.242;8.648;2024-03-25T00:18:03;3.13;;;1.60;;
54993;SDS011;40891;47.242;8.648;2024-03-25T00:20:29;2.20;;;1.30;;
54993;SDS011;40891;47.242;8.648;2024-03-25T00:22:54;2.70;;;1.40;;
54993;SDS011;40891;47.242;8.648;2024-03-25T00:25:20;7.67;;;1.60;;
54993;SDS011;40891;47.242;8.648;2024-03-25T00:27:45;5.23;;;1.43;;
54993;SDS011;40891;47.242;8.648;2024-03-25T00:30:11;4.97;;;1.73;;
54993;SDS011;40891;47.242;8.648;2024-03-25T00:32:36;4.30;;;1.60;;
54993;SDS011;40891;47.242;8.648;2024-03-25T00:35:02;4.60;;;1.50;;
54993;SDS011;40891;47.242;8.648;2024-03-25T00:37:27;3.90;;;1.37;;
54993;SDS011;40891;47.242;8.648;2024-03-25T00:39:53;2.97;;;1.47;;
54993;SDS011;40891;47.242;8.648;2024-03-25T00:42:19;5.00;;;1.40;;
54993;SDS011;40891;47.242;8.648;2024-03-25T00:44:44;8.80;;;1.90;;
54993;SDS011;40891;47.242;8.648;2024-03-25T00:47:09;3.87;;;1.60;;
54993;SDS011;40891;47.242;8.648;2024-03-25T00:49:35;7.00;;;1.77;;
54993;SDS011;40891;47.242;8.648;2024-03-25T00:52:00;3.80;;;1.77;;
54993;SDS011;40891;47.242;8.648;2024-03-25T00:54:25;4.60;;;1.80;;
54993;SDS011;40891;47.242;8.648;2024-03-25T00:56:51;2.97;;;1.50;;
54993;SDS011;40891;47.242;8.648;2024-03-25T00:59:17;5.53;;;1.80;;
54993;SDS011;40891;47.242;8.648;2024-03-25T01:01:42;3.63;;;1.73;;
54993;SDS011;40891;47.242;8.648;2024-03-25T01:04:08;6.40;;;1.80;;
54993;SDS011;40891;47.242;8.648;2024-03-25T01:06:33;5.23;;;2.10;;
54993;SDS011;40891;47.242;8.648;2024-03-25T01:08:58;4.83;;;1.70;;
54993;SDS011;40891;47.242;8.648;2024-03-25T01:11:23;4.77;;;1.77;;
54993;SDS011;40891;47.242;8.648;2024-03-25T01:13:49;4.87;;;1.50;;
54993;SDS011;40891;47.242;8.648;2024-03-25T01:16:14;5.40;;;1.93;;
54993;SDS011;40891;47.242;8.648;2024-03-25T01:18:40;8.60;;;1.97;;
54993;SDS011;40891;47.242;8.648;2024-03-25T01:21:05;6.17;;;1.80;;
54993;SDS011;40891;47.242;8.648;2024-03-25T01:23:31;5.20;;;1.80;;
54993;SDS011;40891;47.242;8.648;2024-03-25T01:25:56;4.63;;;1.97;;
54993;SDS011;40891;47.242;8.648;2024-03-25T01:28:21;6.43;;;1.60;;
54993;SDS011;40891;47.242;8.648;2024-03-25T01:30:47;4.43;;;1.80;;
54993;SDS011;40891;47.242;8.648;2024-03-25T01:33:13;4.30;;;1.67;;
54993;SDS011;40891;47.242;8.648;2024-03-25T01:35:38;3.57;;;1.80;;
54993;SDS011;40891;47.242;8.648;2024-03-25T01:38:04;5.03;;;1.57;;
54993;SDS011;40891;47.242;8.648;2024-03-25T01:40:29;3.53;;;1.60;;
54993;SDS011;40891;47.242;8.648;2024-03-25T01:42:58;2.47;;;1.50;;
54993;SDS011;40891;47.242;8.648;2024-03-25T01:45:34;5.20;;;1.90;;
54993;SDS011;40891;47.242;8.648;2024-03-25T01:48:02;5.63;;;1.60;;
54993;SDS011;40891;47.242;8.648;2024-03-25T01:50:29;7.60;;;1.93;;
54993;SDS011;40891;47.242;8.648;2024-03-25T01:52:58;4.53;;;1.73;;
54993;SDS011;40891;47.242;8.648;2024-03-25T01:55:27;3.93;;;1.53;;
54993;SDS011;40891;47.242;8.648;2024-03-25T01:57:54;5.87;;;1.80;;
54993;SDS011;40891;47.242;8.648;2024-03-25T02:00:20;3.83;;;2.10;;
54993;SDS011;40891;47.242;8.648;2024-03-25T02:02:47;5.27;;;1.70;;
54993;SDS011;40891;47.242;8.648;2024-03-25T02:05:14;5.77;;;2.17;;
54993;SDS011;40891;47.242;8.648;2024-03-25T02:07:40;3.70;;;1.80;;
54993;SDS011;40891;47.242;8.648;2024-03-25T02:10:07;6.03;;;1.90;;
54993;SDS011;40891;47.242;8.648;2024-03-25T02:12:34;3.97;;;2.33;;
54993;SDS011;40891;47.242;8.648;2024-03-25T02:15:01;4.33;;;1.93;;
54993;SDS011;40891;47.242;8.648;2024-03-25T02:17:27;3.90;;;1.90;;
54993;SDS011;40891;47.242;8.648;2024-03-25T02:19:52;3.90;;;1.90;;
54993;SDS011;40891;47.242;8.648;2024-03-25T02:22:18;4.20;;;1.70;;
54993;SDS011;40891;47.242;8.648;2024-03-25T02:24:44;3.43;;;1.90;;
54993;SDS011;40891;47.242;8.648;2024-03-25T02:27:10;7.70;;;1.97;;
54993;SDS011;40891;47.242;8.648;2024-03-25T02:29:39;6.63;;;1.87;;
54993;SDS011;40891;47.242;8.648;2024-03-25T02:32:05;4.30;;;1.90;;
54993;SDS011;40891;47.242;8.648;2024-03-25T02:34:31;3.43;;;1.67;;
54993;SDS011;40891;47.242;8.648;2024-03-25T02:36:57;4.27;;;1.83;;
54993;SDS011;40891;47.242;8.648;2024-03-25T02:39:22;3.17;;;1.80;;
54993;SDS011;40891;47.242;8.648;2024-03-25T02:41:49;4.83;;;2.03;;
54993;SDS011;40891;47.242;8.648;2024-03-25T02:44:15;5.47;;;1.97;;
54993;SDS011;40891;47.242;8.648;2024-03-25T02:46:40;4.50;;;2.07;;
54993;SDS011;40891;47.242;8.648;2024-03-25T02:49:06;6.13;;;2.20;;
54993;SDS011;40891;47.242;8.648;2024-03-25T02:51:31;4.17;;;2.60;;
54993;SDS011;40891;47.242;8.648;2024-03-25T02:53:56;6.93;;;1.80;;
54993;SDS011;40891;47.242;8.648;2024-03-25T02:56:22;2.80;;;2.17;;
54993;SDS011;40891;47.242;8.648;2024-03-25T02:58:47;3.70;;;2.30;;
54993;SDS011;40891;47.242;8.648;2024-03-25T03:01:15;10.43;;;2.63;;
54993;SDS011;40891;47.242;8.648;2024-03-25T03:03:41;4.07;;;2.27;;
54993;SDS011;40891;47.242;8.648;2024-03-25T03:06:06;4.23;;;2.20;;
54993;SDS011;40891;47.242;8.648;2024-03-25T03:08:31;5.43;;;2.17;;
54993;SDS011;40891;47.242;8.648;2024-03-25T03:10:57;8.33;;;2.80;;
54993;SDS011;40891;47.242;8.648;2024-03-25T03:13:22;4.00;;;2.17;;
54993;SDS011;40891;47.242;8.648;2024-03-25T03:15:47;7.70;;;2.17;;
54993;SDS011;40891;47.242;8.648;2024-03-25T03:18:13;4.13;;;2.17;;
54993;SDS011;40891;47.242;8.648;2024-03-25T03:20:38;4.20;;;2.17;;
54993;SDS011;40891;47.242;8.648;2024-03-25T03:23:04;5.63;;;2.27;;
54993;SDS011;40891;47.242;8.648;2024-03-25T03:25:29;3.93;;;2.47;;
54993;SDS011;40891;47.242;8.648;2024-03-25T03:27:55;4.87;;;2.33;;
54993;SDS011;40891;47.242;8.648;2024-03-25T03:30:21;3.87;;;2.33;;
54993;SDS011;40891;47.242;8.648;2024-03-25T03:32:46;5.60;;;2.53;;
54993;SDS011;40891;47.242;8.648;2024-03-25T03:35:12;6.97;;;2.47;;
54993;SDS011;40891;47.242;8.648;2024-03-25T03:37:37;6.03;;;2.90;;
54993;SDS011;40891;47.242;8.648;2024-03-25T03:40:02;6.83;;;2.57;;
54993;SDS011;40891;47.242;8.648;2024-03-25T03:42:31;5.87;;;2.93;;
54993;SDS011;40891;47.242;8.648;2024-03-25T03:44:56;5.37;;;2.80;;
54993;SDS011;40891;47.242;8.648;2024-03-25T03:47:21;3.73;;;2.80;;
54993;SDS011;40891;47.242;8.648;2024-03-25T03:49:46;4.87;;;2.63;;
54993;SDS011;40891;47.242;8.648;2024-03-25T03:52:12;10.67;;;3.40;;
54993;SDS011;40891;47.242;8.648;2024-03-25T03:54:37;8.00;;;3.30;;
54993;SDS011;40891;47.242;8.648;2024-03-25T03:57:03;6.50;;;2.60;;
54993;SDS011;40891;47.242;8.648;2024-03-25T03:59:30;4.73;;;2.80;;
54993;SDS011;40891;47.242;8.648;2024-03-25T04:01:55;8.60;;;3.23;;
54993;SDS011;40891;47.242;8.648;2024-03-25T04:04:21;5.30;;;2.53;;
54993;SDS011;40891;47.242;8.648;2024-03-25T04:06:46;5.00;;;2.50;;
54993;SDS011;40891;47.242;8.648;2024-03-25T04:09:11;3.20;;;2.07;;
54993;SDS011;40891;47.242;8.648;2024-03-25T04:11:37;6.60;;;2.27;;
54993;SDS011;40891;47.242;8.648;2024-03-25T04:14:02;2.73;;;2.13;;
54993;SDS011;40891;47.242;8.648;2024-03-25T04:16:27;5.73;;;2.60;;
54993;SDS011;40891;47.242;8.648;2024-03-25T04:18:55;4.57;;;2.60;;
54993;SDS011;40891;47.242;8.648;2024-03-25T04:21:21;6.67;;;2.50;;
54993;SDS011;40891;47.242;8.648;2024-03-25T04:23:47;8.70;;;3.20;;
54993;SDS011;40891;47.242;8.648;2024-03-25T04:26:14;4.27;;;2.23;;
54993;SDS011;40891;47.242;8.648;2024-03-25T04:28:39;4.23;;;2.40;;
54993;SDS011;40891;47.242;8.648;2024-03-25T04:31:05;3.40;;;2.30;;
54993;SDS011;40891;47.242;8.648;2024-03-25T04:33:32;4.83;;;2.67;;
54993;SDS011;40891;47.242;8.648;2024-03-25T04:35:58;4.67;;;2.73;;
54993;SDS011;40891;47.242;8.648;2024-03-25T04:38:23;4.87;;;2.83;;
54993;SDS011;40891;47.242;8.648;2024-03-25T04:40:49;5.50;;;3.17;;
54993;SDS011;40891;47.242;8.648;2024-03-25T04:43:15;4.20;;;2.70;;
54993;SDS011;40891;47.242;8.648;2024-03-25T04:45:40;7.03;;;3.57;;
54993;SDS011;40891;47.242;8.648;2024-03-25T04:48:06;4.90;;;3.10;;
54993;SDS011;40891;47.242;8.648;2024-03-25T04:50:32;5.80;;;3.33;;
54993;SDS011;40891;47.242;8.648;2024-03-25T04:52:58;6.53;;;3.23;;
54993;SDS011;40891;47.242;8.648;2024-03-25T04:55:23;6.83;;;3.10;;
54993;SDS011;40891;47.242;8.648;2024-03-25T04:57:49;6.07;;;3.00;;
54993;SDS011;40891;47.242;8.648;2024-03-25T05:00:14;6.23;;;3.00;;
54993;SDS011;40891;47.242;8.648;2024-03-25T05:02:40;8.60;;;3.10;;
54993;SDS011;40891;47.242;8.648;2024-03-25T05:05:05;7.93;;;2.93;;
54993;SDS011;40891;47.242;8.648;2024-03-25T05:07:32;5.70;;;2.43;;
54993;SDS011;40891;47.242;8.648;2024-03-25T05:09:57;5.03;;;2.90;;
54993;SDS011;40891;47.242;8.648;2024-03-25T05:12:22;5.27;;;3.03;;
54993;SDS011;40891;47.242;8.648;2024-03-25T05:14:48;5.90;;;3.13;;
54993;SDS011;40891;47.242;8.648;2024-03-25T05:17:13;7.50;;;3.07;;
54993;SDS011;40891;47.242;8.648;2024-03-25T05:19:39;5.03;;;2.80;;
54993;SDS011;40891;47.242;8.648;2024-03-25T05:22:04;5.80;;;2.27;;
54993;SDS011;40891;47.242;8.648;2024-03-25T05:24:29;7.70;;;2.50;;
54993;SDS011;40891;47.242;8.648;2024-03-25T05:26:55;5.80;;;2.83;;
54993;SDS011;40891;47.242;8.648;2024-03-25T05:29:21;6.13;;;3.00;;
54993;SDS011;40891;47.242;8.648;2024-03-25T05:31:56;5.10;;;2.90;;
54993;SDS011;40891;47.242;8.648;2024-03-25T05:34:23;4.23;;;3.00;;
54993;SDS011;40891;47.242;8.648;2024-03-25T05:36:48;4.63;;;2.80;;
54993;SDS011;40891;47.242;8.648;2024-03-25T05:39:14;4.17;;;2.80;;
54993;SDS011;40891;47.242;8.648;2024-03-25T05:41:39;6.70;;;3.03;;
54993;SDS011;40891;47.242;8.648;2024-03-25T05:44:04;6.93;;;3.07;;
54993;SDS011;40891;47.242;8.648;2024-03-25T05:46:29;6.30;;;3.23;;
54993;SDS011;40891;47.242;8.648;2024-03-25T05:48:55;5.00;;;2.63;;
54993;SDS011;40891;47.242;8.648;2024-03-25T05:51:20;9.17;;;3.40;;
54993;SDS011;40891;47.242;8.648;2024-03-25T05:53:45;4.23;;;2.73;;
54993;SDS011;40891;47.242;8.648;2024-03-25T05:56:11;8.10;;;3.73;;
54993;SDS011;40891;47.242;8.648;2024-03-25T05:58:36;7.33;;;3.03;;
54993;SDS011;40891;47.242;8.648;2024-03-25T06:01:01;5.17;;;3.10;;
54993;SDS011;40891;47.242;8.648;2024-03-25T06:03:29;7.67;;;3.10;;
54993;SDS011;40891;47.242;8.648;2024-03-25T06:05:54;3.97;;;2.70;;
54993;SDS011;40891;47.242;8.648;2024-03-25T06:08:19;4.57;;;3.03;;
54993;SDS011;40891;47.242;8.648;2024-03-25T06:10:51;6.37;;;3.10;;
54993;SDS011;40891;47.242;8.648;2024-03-25T06:13:17;4.60;;;2.93;;
54993;SDS011;40891;47.242;8.648;2024-03-25T06:15:42;5.07;;;3.00;;
54993;SDS011;40891;47.242;8.648;2024-03-25T06:18:08;3.37;;;2.43;;
54993;SDS011;40891;47.242;8.648;2024-03-25T06:20:33;3.57;;;2.37;;
54993;SDS011;40891;47.242;8.648;2024-03-25T06:22:59;5.23;;;2.50;;
54993;SDS011;40891;47.242;8.648;2024-03-25T06:25:24;4.83;;;2.10;;
54993;SDS011;40891;47.242;8.648;2024-03-25T06:27:49;3.10;;;2.43;;
54993;SDS011;40891;47.242;8.648;2024-03-25T06:30:14;4.10;;;2.60;;
54993;SDS011;40891;47.242;8.648;2024-03-25T06:33:00;5.77;;;2.03;;
54993;SDS011;40891;47.242;8.648;2024-03-25T06:35:44;3.17;;;2.00;;
54993;SDS011;40891;47.242;8.648;2024-03-25T06:38:10;3.47;;;2.10;;
54993;SDS011;40891;47.242;8.648;2024-03-25T06:40:36;2.77;;;2.10;;
54993;SDS011;40891;47.242;8.648;2024-03-25T06:43:01;2.90;;;1.83;;
54993;SDS011;40891;47.242;8.648;2024-03-25T06:45:27;3.53;;;1.83;;
54993;SDS011;40891;47.242;8.648;2024-03-25T06:47:52;4.43;;;2.03;;
54993;SDS011;40891;47.242;8.648;2024-03-25T06:50:18;2.47;;;1.57;;
54993;SDS011;40891;47.242;8.648;2024-03-25T06:52:43;4.87;;;1.90;;
54993;SDS011;40891;47.242;8.648;2024-03-25T06:55:08;2.83;;;1.60;;
54993;SDS011;40891;47.242;8.648;2024-03-25T06:57:34;2.50;;;1.33;;
54993;SDS011;40891;47.242;8.648;2024-03-25T06:59:59;3.60;;;1.57;;
54993;SDS011;40891;47.242;8.648;2024-03-25T07:02:24;5.67;;;1.50;;
54993;SDS011;40891;47.242;8.648;2024-03-25T07:04:50;2.03;;;1.57;;
54993;SDS011;40891;47.242;8.648;2024-03-25T07:07:15;2.93;;;1.30;;
54993;SDS011;40891;47.242;8.648;2024-03-25T07:09:40;5.40;;;2.17;;
54993;SDS011;40891;47.242;8.648;2024-03-25T07:12:06;3.03;;;1.73;;
54993;SDS011;40891;47.242;8.648;2024-03-25T07:14:32;3.13;;;1.50;;
54993;SDS011;40891;47.242;8.648;2024-03-25T07:16:57;2.07;;;1.33;;
54993;SDS011;40891;47.242;8.648;2024-03-25T07:19:22;4.10;;;1.40;;
54993;SDS011;40891;47.242;8.648;2024-03-25T07:21:48;4.07;;;1.60;;
54993;SDS011;40891;47.242;8.648;2024-03-25T07:24:13;1.87;;;1.30;;
54993;SDS011;40891;47.242;8.648;2024-03-25T07:26:38;2.83;;;1.47;;
54993;SDS011;40891;47.242;8.648;2024-03-25T07:29:04;3.23;;;1.67;;
54993;SDS011;40891;47.242;8.648;2024-03-25T07:31:29;3.27;;;1.60;;
54993;SDS011;40891;47.242;8.648;2024-03-25T07:33:54;2.47;;;1.60;;
54993;SDS011;40891;47.242;8.648;2024-03-25T07:36:19;2.67;;;1.53;;
54993;SDS011;40891;47.242;8.648;2024-03-25T07:38:45;2.13;;;1.20;;
54993;SDS011;40891;47.242;8.648;2024-03-25T07:41:10;3.07;;;1.20;;
54993;SDS011;40891;47.242;8.648;2024-03-25T07:43:36;4.40;;;1.23;;
54993;SDS011;40891;47.242;8.648;2024-03-25T07:46:01;3.30;;;1.40;;
54993;SDS011;40891;47.242;8.648;2024-03-25T07:48:27;2.93;;;1.10;;
54993;SDS011;40891;47.242;8.648;2024-03-25T07:50:52;4.03;;;1.20;;
54993;SDS011;40891;47.242;8.648;2024-03-25T07:53:17;2.83;;;1.07;;
54993;SDS011;40891;47.242;8.648;2024-03-25T07:55:43;2.27;;;1.20;;
54993;SDS011;40891;47.242;8.648;2024-03-25T07:58:08;1.67;;;0.80;;
54993;SDS011;40891;47.242;8.648;2024-03-25T08:00:34;2.20;;;1.03;;
54993;SDS011;40891;47.242;8.648;2024-03-25T08:02:59;2.57;;;1.10;;
54993;SDS011;40891;47.242;8.648;2024-03-25T08:05:25;2.50;;;0.80;;
54993;SDS011;40891;47.242;8.648;2024-03-25T08:07:50;3.17;;;1.30;;
54993;SDS011;40891;47.242;8.648;2024-03-25T08:10:15;2.60;;;1.03;;
54993;SDS011;40891;47.242;8.648;2024-03-25T08:12:41;2.50;;;0.93;;
54993;SDS011;40891;47.242;8.648;2024-03-25T08:15:06;3.17;;;0.90;;
54993;SDS011;40891;47.242;8.648;2024-03-25T08:17:33;3.00;;;1.30;;
54993;SDS011;40891;47.242;8.648;2024-03-25T08:19:58;1.70;;;0.90;;
54993;SDS011;40891;47.242;8.648;2024-03-25T08:22:23;2.07;;;1.13;;
54993;SDS011;40891;47.242;8.648;2024-03-25T08:24:48;1.67;;;0.90;;
54993;SDS011;40891;47.242;8.648;2024-03-25T08:27:14;1.43;;;1.00;;
54993;SDS011;40891;47.242;8.648;2024-03-25T08:29:40;1.73;;;0.87;;
54993;SDS011;40891;47.242;8.648;2024-03-25T08:32:05;2.40;;;1.17;;
54993;SDS011;40891;47.242;8.648;2024-03-25T08:34:31;1.53;;;0.93;;
54993;SDS011;40891;47.242;8.648;2024-03-25T08:36:56;1.87;;;0.90;;
54993;SDS011;40891;47.242;8.648;2024-03-25T08:39:22;2.03;;;0.87;;
54993;SDS011;40891;47.242;8.648;2024-03-25T08:41:47;2.10;;;0.87;;
54993;SDS011;40891;47.242;8.648;2024-03-25T08:44:12;3.00;;;1.00;;
54993;SDS011;40891;47.242;8.648;2024-03-25T08:46:38;1.60;;;0.90;;
54993;SDS011;40891;47.242;8.648;2024-03-25T08:49:04;5.40;;;0.90;;
54993;SDS011;40891;47.242;8.648;2024-03-25T08:51:29;4.83;;;1.00;;
54993;SDS011;40891;47.242;8.648;2024-03-25T08:53:54;3.13;;;1.00;;
54993;SDS011;40891;47.242;8.648;2024-03-25T08:56:20;3.30;;;1.13;;
54993;SDS011;40891;47.242;8.648;2024-03-25T08:58:45;2.53;;;1.10;;
54993;SDS011;40891;47.242;8.648;2024-03-25T09:01:10;1.73;;;0.90;;
54993;SDS011;40891;47.242;8.648;2024-03-25T09:03:39;1.70;;;0.80;;
54993;SDS011;40891;47.242;8.648;2024-03-25T09:06:04;1.67;;;0.70;;
54993;SDS011;40891;47.242;8.648;2024-03-25T09:08:30;1.33;;;0.73;;
54993;SDS011;40891;47.242;8.648;2024-03-25T09:11:01;1.23;;;0.60;;
54993;SDS011;40891;47.242;8.648;2024-03-25T09:13:32;3.50;;;0.90;;
54993;SDS011;40891;47.242;8.648;2024-03-25T09:15:57;1.63;;;0.90;;
54993;SDS011;40891;47.242;8.648;2024-03-25T09:18:23;1.47;;;0.77;;
54993;SDS011;40891;47.242;8.648;2024-03-25T09:20:48;1.60;;;0.70;;
54993;SDS011;40891;47.242;8.648;2024-03-25T09:23:13;1.83;;;0.90;;
54993;SDS011;40891;47.242;8.648;2024-03-25T09:25:39;4.53;;;0.90;;
54993;SDS011;40891;47.242;8.648;2024-03-25T09:28:04;2.67;;;0.60;;
54993;SDS011;40891;47.242;8.648;2024-03-25T09:30:34;1.20;;;0.60;;
54993;SDS011;40891;47.242;8.648;2024-03-25T09:32:59;1.38;;;0.68;;
54993;SDS011;40891;47.242;8.648;2024-03-25T09:35:24;3.50;;;0.77;;
54993;SDS011;40891;47.242;8.648;2024-03-25T09:37:50;3.03;;;0.80;;
54993;SDS011;40891;47.242;8.648;2024-03-25T09:40:15;1.65;;;0.70;;
54993;SDS011;40891;47.242;8.648;2024-03-25T09:42:47;2.53;;;0.77;;
54993;SDS011;40891;47.242;8.648;2024-03-25T09:45:13;2.25;;;0.70;;
54993;SDS011;40891;47.242;8.648;2024-03-25T09:47:43;1.55;;;0.60;;
54993;SDS011;40891;47.242;8.648;2024-03-25T09:50:11;2.63;;;0.80;;
54993;SDS011;40891;47.242;8.648;2024-03-25T09:52:46;1.25;;;0.80;;
54993;SDS011;40891;47.242;8.648;2024-03-25T09:55:14;3.83;;;1.00;;
54993;SDS011;40891;47.242;8.648;2024-03-25T09:57:40;3.08;;;0.82;;
54993;SDS011;40891;47.242;8.648;2024-03-25T10:00:07;0.95;;;0.60;;
54993;SDS011;40891;47.242;8.648;2024-03-25T10:02:34;2.00;;;0.80;;
54993;SDS011;40891;47.242;8.648;2024-03-25T10:05:01;1.42;;;0.85;;
54993;SDS011;40891;47.242;8.648;2024-03-25T10:07:28;2.78;;;0.90;;
54993;SDS011;40891;47.242;8.648;2024-03-25T10:09:53;4.20;;;1.20;;
54993;SDS011;40891;47.242;8.648;2024-03-25T10:12:18;2.15;;;0.85;;
54993;SDS011;40891;47.242;8.648;2024-03-25T10:14:44;2.15;;;0.90;;
54993;SDS011;40891;47.242;8.648;2024-03-25T10:17:10;3.05;;;1.27;;
54993;SDS011;40891;47.242;8.648;2024-03-25T10:19:36;3.47;;;1.10;;
54993;SDS011;40891;47.242;8.648;2024-03-25T10:22:05;2.95;;;1.00;;
54993;SDS011;40891;47.242;8.648;2024-03-25T10:24:45;2.15;;;0.90;;
54993;SDS011;40891;47.242;8.648;2024-03-25T10:27:16;2.38;;;1.10;;
54993;SDS011;40891;47.242;8.648;2024-03-25T10:29:53;5.55;;;1.13;;
54993;SDS011;40891;47.242;8.648;2024-03-25T10:32:22;2.10;;;0.93;;
54993;SDS011;40891;47.242;8.648;2024-03-25T10:34:53;4.47;;;0.80;;
54993;SDS011;40891;47.242;8.648;2024-03-25T10:37:18;1.85;;;0.88;;
54993;SDS011;40891;47.242;8.648;2024-03-25T10:39:47;1.20;;;0.82;;
54993;SDS011;40891;47.242;8.648;2024-03-25T10:42:16;2.55;;;1.10;;
54993;SDS011;40891;47.242;8.648;2024-03-25T10:44:44;2.58;;;0.95;;
54993;SDS011;40891;47.242;8.648;2024-03-25T10:47:10;2.47;;;1.08;;
54993;SDS011;40891;47.242;8.648;2024-03-25T10:49:45;7.05;;;1.45;;
54993;SDS011;40891;47.242;8.648;2024-03-25T10:52:14;5.18;;;1.10;;
54993;SDS011;40891;47.242;8.648;2024-03-25T10:54:42;3.42;;;1.15;;
54993;SDS011;40891;47.242;8.648;2024-03-25T10:57:09;2.05;;;1.10;;
54993;SDS011;40891;47.242;8.648;2024-03-25T10:59:37;3.72;;;0.90;;
54993;SDS011;40891;47.242;8.648;2024-03-25T11:02:06;3.50;;;1.38;;
54993;SDS011;40891;47.242;8.648;2024-03-25T11:04:32;3.08;;;1.00;;
54993;SDS011;40891;47.242;8.648;2024-03-25T11:07:08;2.10;;;1.02;;
54993;SDS011;40891;47.242;8.648;2024-03-25T11:09:34;2.58;;;1.20;;
54993;SDS011;40891;47.242;8.648;2024-03-25T11:11:59;2.67;;;1.02;;
54993;SDS011;40891;47.242;8.648;2024-03-25T11:14:25;1.67;;;1.00;;
54993;SDS011;40891;47.242;8.648;2024-03-25T11:16:51;3.92;;;1.20;;
54993;SDS011;40891;47.242;8.648;2024-03-25T11:19:18;3.08;;;0.80;;
54993;SDS011;40891;47.242;8.648;2024-03-25T11:21:44;2.65;;;0.90;;
54993;SDS011;40891;47.242;8.648;2024-03-25T11:24:09;2.25;;;0.80;;
54993;SDS011;40891;47.242;8.648;2024-03-25T11:26:34;2.28;;;0.80;;
54993;SDS011;40891;47.242;8.648;2024-03-25T11:29:05;2.97;;;0.80;;
54993;SDS011;40891;47.242;8.648;2024-03-25T11:31:30;2.20;;;0.80;;
54993;SDS011;40891;47.242;8.648;2024-03-25T11:34:03;1.50;;;0.68;;
54993;SDS011;40891;47.242;8.648;2024-03-25T11:36:29;1.58;;;0.60;;
54993;SDS011;40891;47.242;8.648;2024-03-25T11:39:02;1.98;;;0.60;;
54993;SDS011;40891;47.242;8.648;2024-03-25T11:41:30;1.20;;;0.60;;
54993;SDS011;40891;47.242;8.648;2024-03-25T11:43:57;1.55;;;0.70;;
54993;SDS011;40891;47.242;8.648;2024-03-25T11:46:24;2.25;;;0.80;;
54993;SDS011;40891;47.242;8.648;2024-03-25T11:48:50;1.80;;;0.77;;
54993;SDS011;40891;47.242;8.648;2024-03-25T11:51:21;2.38;;;0.75;;
54993;SDS011;40891;47.242;8.648;2024-03-25T11:53:47;1.88;;;0.60;;
54993;SDS011;40891;47.242;8.648;2024-03-25T11:56:12;1.75;;;0.63;;
54993;SDS011;40891;47.242;8.648;2024-03-25T11:58:39;1.35;;;0.60;;
54993;SDS011;40891;47.242;8.648;2024-03-25T12:01:04;2.65;;;0.70;;
54993;SDS011;40891;47.242;8.648;2024-03-25T12:03:30;1.15;;;0.60;;
54993;SDS011;40891;47.242;8.648;2024-03-25T12:05:56;2.83;;;0.63;;
54993;SDS011;40891;47.242;8.648;2024-03-25T12:08:22;1.70;;;0.65;;
54993;SDS011;40891;47.242;8.648;2024-03-25T12:10:51;3.20;;;0.70;;
54993;SDS011;40891;47.242;8.648;2024-03-25T12:13:35;1.17;;;0.60;;
54993;SDS011;40891;47.242;8.648;2024-03-25T12:16:05;1.27;;;0.50;;
54993;SDS011;40891;47.242;8.648;2024-03-25T12:18:32;1.27;;;0.50;;
54993;SDS011;40891;47.242;8.648;2024-03-25T12:20:58;1.52;;;0.60;;
54993;SDS011;40891;47.242;8.648;2024-03-25T12:23:28;1.48;;;0.50;;
54993;SDS011;40891;47.242;8.648;2024-03-25T12:25:54;2.08;;;0.70;;
54993;SDS011;40891;47.242;8.648;2024-03-25T12:28:20;3.08;;;0.60;;
54993;SDS011;40891;47.242;8.648;2024-03-25T12:30:50;2.22;;;0.45;;
54993;SDS011;40891;47.242;8.648;2024-03-25T12:33:16;0.82;;;0.47;;
54993;SDS011;40891;47.242;8.648;2024-03-25T12:35:44;0.85;;;0.40;;
54993;SDS011;40891;47.242;8.648;2024-03-25T12:38:21;1.00;;;0.50;;
54993;SDS011;40891;47.242;8.648;2024-03-25T12:40:47;2.85;;;0.50;;
54993;SDS011;40891;47.242;8.648;2024-03-25T12:43:16;2.22;;;0.50;;
54993;SDS011;40891;47.242;8.648;2024-03-25T12:45:41;0.70;;;0.50;;
54993;SDS011;40891;47.242;8.648;2024-03-25T12:48:07;2.67;;;0.43;;
54993;SDS011;40891;47.242;8.648;2024-03-25T12:50:33;1.30;;;0.60;;
54993;SDS011;40891;47.242;8.648;2024-03-25T12:52:59;3.13;;;0.68;;
54993;SDS011;40891;47.242;8.648;2024-03-25T12:55:24;1.13;;;0.43;;
54993;SDS011;40891;47.242;8.648;2024-03-25T12:57:49;0.73;;;0.52;;
54993;SDS011;40891;47.242;8.648;2024-03-25T13:00:15;2.40;;;0.45;;
54993;SDS011;40891;47.242;8.648;2024-03-25T13:02:41;1.08;;;0.60;;
54993;SDS011;40891;47.242;8.648;2024-03-25T13:05:06;1.65;;;0.60;;
54993;SDS011;40891;47.242;8.648;2024-03-25T13:07:33;0.85;;;0.50;;
54993;SDS011;40891;47.242;8.648;2024-03-25T13:09:58;1.45;;;0.55;;
54993;SDS011;40891;47.242;8.648;2024-03-25T13:12:23;1.27;;;0.60;;
54993;SDS011;40891;47.242;8.648;2024-03-25T13:14:49;1.10;;;0.50;;
54993;SDS011;40891;47.242;8.648;2024-03-25T13:17:14;0.88;;;0.57;;
54993;SDS011;40891;47.242;8.648;2024-03-25T13:19:40;1.58;;;0.50;;
54993;SDS011;40891;47.242;8.648;2024-03-25T13:22:05;2.20;;;0.43;;
54993;SDS011;40891;47.242;8.648;2024-03-25T13:24:30;1.33;;;0.70;;
54993;SDS011;40891;47.242;8.648;2024-03-25T13:26:56;0.82;;;0.43;;
54993;SDS011;40891;47.242;8.648;2024-03-25T13:29:21;0.57;;;0.57;;
54993;SDS011;40891;47.242;8.648;2024-03-25T13:31:46;0.55;;;0.47;;
54993;SDS011;40891;47.242;8.648;2024-03-25T13:34:12;2.90;;;0.60;;
54993;SDS011;40891;47.242;8.648;2024-03-25T13:36:37;1.02;;;0.38;;
54993;SDS011;40891;47.242;8.648;2024-03-25T13:39:02;0.98;;;0.50;;
54993;SDS011;40891;47.242;8.648;2024-03-25T13:41:28;2.78;;;0.57;;
54993;SDS011;40891;47.242;8.648;2024-03-25T13:43:53;2.97;;;0.60;;
54993;SDS011;40891;47.242;8.648;2024-03-25T13:46:19;2.25;;;0.47;;
54993;SDS011;40891;47.242;8.648;2024-03-25T13:48:44;1.42;;;0.50;;
54993;SDS011;40891;47.242;8.648;2024-03-25T13:51:10;2.00;;;0.70;;
54993;SDS011;40891;47.242;8.648;2024-03-25T13:53:35;1.35;;;0.52;;
54993;SDS011;40891;47.242;8.648;2024-03-25T13:56:00;0.82;;;0.50;;
54993;SDS011;40891;47.242;8.648;2024-03-25T13:58:26;2.88;;;0.60;;
54993;SDS011;40891;47.242;8.648;2024-03-25T14:00:52;2.75;;;0.70;;
54993;SDS011;40891;47.242;8.648;2024-03-25T14:03:17;1.73;;;0.60;;
54993;SDS011;40891;47.242;8.648;2024-03-25T14:05:42;1.85;;;0.40;;
54993;SDS011;40891;47.242;8.648;2024-03-25T14:08:08;1.50;;;0.57;;
54993;SDS011;40891;47.242;8.648;2024-03-25T14:10:34;0.75;;;0.50;;
54993;SDS011;40891;47.242;8.648;2024-03-25T14:13:00;1.13;;;0.32;;
54993;SDS011;40891;47.242;8.648;2024-03-25T14:15:25;2.10;;;0.40;;
54993;SDS011;40891;47.242;8.648;2024-03-25T14:17:51;1.13;;;0.50;;
54993;SDS011;40891;47.242;8.648;2024-03-25T14:20:17;1.05;;;0.50;;
54993;SDS011;40891;47.242;8.648;2024-03-25T14:22:42;0.88;;;0.40;;
54993;SDS011;40891;47.242;8.648;2024-03-25T14:25:07;0.68;;;0.43;;
54993;SDS011;40891;47.242;8.648;2024-03-25T14:27:33;0.55;;;0.43;;
54993;SDS011;40891;47.242;8.648;2024-03-25T14:29:59;0.85;;;0.43;;
54993;SDS011;40891;47.242;8.648;2024-03-25T14:32:24;1.25;;;0.57;;
54993;SDS011;40891;47.242;8.648;2024-03-25T14:34:49;0.70;;;0.40;;
54993;SDS011;40891;47.242;8.648;2024-03-25T14:37:15;1.25;;;0.50;;
54993;SDS011;40891;47.242;8.648;2024-03-25T14:39:40;0.98;;;0.52;;
54993;SDS011;40891;47.242;8.648;2024-03-25T14:42:10;1.10;;;0.50;;